Time;durP1;ratioP1;P1;durP2;ratioP2;P2;SDS_P1;SDS_P2;PMS_P1;PMS_P2;Temp;Humidity;BMP_temperature;BMP_pressure;BME280_temperature;BME280_humidity;BME280_pressure;Samples;Min_cycle;Max_cycle;Signal;HPM_P1;HPM_P2
2022/12/08 00:00:52;;;;;;;17.77;8.77;;;2.60;99.90;;;;;;5052384;28;20631;-85
2022/12/08 00:03:18;;;;;;;11.07;8.67;;;2.60;99.90;;;;;;5052711;28;20663;-85
2022/12/08 00:11:18;;;;;;;17.20;8.93;;;2.60;99.90;;;;;;5053641;28;20247;-89
2022/12/08 00:13:44;;;;;;;26.90;9.00;;;2.60;99.90;;;;;;5052045;28;20190;-85
2022/12/08 00:16:11;;;;;;;14.03;9.20;;;2.60;99.90;;;;;;5051728;28;20248;-83
2022/12/08 00:18:37;;;;;;;12.23;9.00;;;2.60;99.90;;;;;;5053431;28;20247;-86
2022/12/08 00:21:03;;;;;;;19.80;10.00;;;2.60;99.90;;;;;;5052976;28;20256;-85
2022/12/08 00:23:29;;;;;;;15.20;9.30;;;2.60;99.90;;;;;;5053746;28;20178;-86
2022/12/08 00:25:55;;;;;;;12.60;8.70;;;2.60;99.90;;;;;;5051520;28;20367;-91
2022/12/08 00:28:20;;;;;;;11.70;9.23;;;2.60;99.90;;;;;;5045499;28;20190;-87
2022/12/08 00:30:46;;;;;;;13.03;8.33;;;2.60;99.90;;;;;;5053636;28;20227;-93
2022/12/08 00:33:12;;;;;;;13.17;9.20;;;2.60;99.90;;;;;;5052171;28;20189;-87
2022/12/08 00:35:38;;;;;;;12.03;8.13;;;2.60;99.90;;;;;;5048360;28;20220;-86
2022/12/08 00:38:03;;;;;;;12.97;8.30;;;2.60;99.90;;;;;;5053061;28;20190;-87
2022/12/08 00:40:30;;;;;;;10.90;8.50;;;2.50;99.90;;;;;;5053566;28;20286;-86
2022/12/08 00:42:56;;;;;;;13.50;8.87;;;2.50;99.90;;;;;;5047386;28;20225;-87
2022/12/08 00:45:22;;;;;;;12.80;8.93;;;2.40;99.90;;;;;;5072503;28;20187;-86
2022/12/08 00:47:47;;;;;;;14.87;8.73;;;2.40;99.90;;;;;;5043457;28;20221;-93
2022/12/08 00:50:13;;;;;;;10.90;8.20;;;2.40;99.90;;;;;;5072558;28;20287;-86
2022/12/08 00:52:39;;;;;;;16.80;8.97;;;2.40;99.90;;;;;;5073773;28;20201;-86
2022/12/08 00:55:05;;;;;;;13.57;8.77;;;2.40;99.90;;;;;;5071151;28;20189;-88
2022/12/08 00:57:31;;;;;;;17.37;9.13;;;2.40;99.90;;;;;;5072573;28;20181;-86
2022/12/08 00:59:57;;;;;;;14.80;9.10;;;2.40;99.90;;;;;;5074694;28;20682;-85
2022/12/08 01:02:23;;;;;;;13.80;9.07;;;2.40;99.90;;;;;;5058210;28;20178;-85
2022/12/08 01:04:49;;;;;;;13.10;9.53;;;2.40;99.90;;;;;;5058852;28;20213;-84
2022/12/08 01:07:15;;;;;;;13.53;9.13;;;2.40;99.90;;;;;;5057872;28;20240;-86
2022/12/08 01:09:41;;;;;;;14.33;9.07;;;2.40;99.90;;;;;;5057496;28;20771;-86
2022/12/08 01:12:07;;;;;;;14.27;9.23;;;2.40;99.90;;;;;;5077066;28;20192;-85
2022/12/08 01:14:33;;;;;;;14.17;9.47;;;2.40;99.90;;;;;;5075364;28;20620;-85
2022/12/08 01:16:59;;;;;;;13.80;9.90;;;2.40;99.90;;;;;;5075417;28;20196;-85
2022/12/08 01:19:24;;;;;;;14.33;9.80;;;2.40;99.90;;;;;;5076129;28;20189;-85
2022/12/08 01:21:50;;;;;;;14.23;9.67;;;2.50;99.90;;;;;;5058726;28;20180;-84
2022/12/08 01:24:19;;;;;;;13.00;9.70;;;2.40;99.90;;;;;;5058627;28;20272;-86
2022/12/08 01:26:46;;;;;;;16.93;9.90;;;2.50;99.90;;;;;;5057797;28;20209;-85
2022/12/08 01:29:13;;;;;;;13.70;8.97;;;2.50;99.90;;;;;;5075652;28;20181;-86
2022/12/08 01:31:39;;;;;;;16.67;10.63;;;2.50;99.90;;;;;;5058170;28;20280;-85
2022/12/08 01:34:06;;;;;;;18.13;10.33;;;2.50;99.90;;;;;;5052988;28;20182;-86
2022/12/08 01:36:35;;;;;;;15.37;10.23;;;2.50;99.90;;;;;;5049447;28;20626;-85
2022/12/08 01:39:04;;;;;;;16.03;10.77;;;2.50;99.90;;;;;;5059106;28;20220;-85
2022/12/08 01:41:34;;;;;;;17.40;10.90;;;2.60;99.90;;;;;;5057149;28;20166;-86
2022/12/08 01:44:22;;;;;;;18.73;11.50;;;2.60;99.90;;;;;;5056319;28;20252;-85
2022/12/08 01:46:48;;;;;;;14.97;10.07;;;2.60;99.90;;;;;;5037954;28;20225;-85
2022/12/08 01:49:22;;;;;;;17.10;10.27;;;2.60;99.90;;;;;;5056477;28;20475;-86
2022/12/08 01:52:07;;;;;;;17.57;10.70;;;2.60;99.90;;;;;;5037620;28;20185;-87
2022/12/08 01:54:39;;;;;;;15.90;9.83;;;2.60;99.90;;;;;;5055829;28;20205;-86
2022/12/08 01:57:14;;;;;;;17.03;11.07;;;2.60;99.90;;;;;;5055552;28;20244;-87
2022/12/08 01:59:48;;;;;;;15.03;10.50;;;2.60;99.90;;;;;;5037917;28;20170;-86
2022/12/08 02:02:14;;;;;;;16.07;11.20;;;2.60;99.90;;;;;;5054414;28;20569;-85
2022/12/08 02:04:39;;;;;;;18.23;11.37;;;2.60;99.90;;;;;;5053963;28;20186;-86
2022/12/08 02:07:07;;;;;;;17.57;10.73;;;2.60;99.90;;;;;;5038059;28;20214;-92
2022/12/08 02:09:35;;;;;;;24.50;10.90;;;2.60;99.90;;;;;;5037329;28;20292;-89
2022/12/08 02:12:01;;;;;;;13.93;10.67;;;2.70;99.90;;;;;;5055149;28;20248;-88
2022/12/08 02:14:26;;;;;;;17.70;10.87;;;2.60;99.90;;;;;;5037589;28;20205;-86
2022/12/08 02:17:01;;;;;;;18.87;10.53;;;2.70;99.90;;;;;;5038096;28;20190;-89
2022/12/08 02:19:46;;;;;;;16.90;10.27;;;2.70;99.90;;;;;;5037839;28;20213;-86
2022/12/08 02:22:24;;;;;;;19.07;10.87;;;2.70;99.90;;;;;;5037070;28;20196;-89
2022/12/08 02:25:26;;;;;;;13.40;9.77;;;2.70;99.90;;;;;;5055362;28;20197;-88
2022/12/08 02:28:02;;;;;;;18.00;10.30;;;2.70;99.90;;;;;;5038368;28;20583;-87
2022/12/08 02:30:38;;;;;;;16.03;10.27;;;2.70;99.90;;;;;;5055605;28;20174;-92
2022/12/08 02:33:41;;;;;;;17.33;10.93;;;2.70;99.90;;;;;;5041774;28;20524;-89
2022/12/08 02:36:37;;;;;;;13.30;9.60;;;2.70;99.90;;;;;;5022757;28;20199;-96
2022/12/08 02:39:28;;;;;;;18.13;10.17;;;2.70;99.90;;;;;;5038522;28;20170;-86
2022/12/08 02:42:20;;;;;;;19.20;10.07;;;2.70;99.90;;;;;;5466847;23;20226;-87
2022/12/08 02:45:05;;;;;;;18.53;9.63;;;2.70;99.90;;;;;;5009169;28;20187;-88
2022/12/08 02:47:33;;;;;;;14.30;8.53;;;2.60;99.90;;;;;;5032828;28;20640;-85
2022/12/08 02:49:58;;;;;;;13.87;8.97;;;2.60;99.90;;;;;;5035751;28;20189;-85
2022/12/08 02:52:24;;;;;;;13.57;9.17;;;2.60;99.90;;;;;;5030424;28;20182;-85
2022/12/08 02:55:00;;;;;;;17.83;9.70;;;2.60;99.90;;;;;;5034792;28;20183;-86
2022/12/08 02:57:43;;;;;;;15.33;8.33;;;2.60;99.90;;;;;;5016022;28;20202;-87
2022/12/08 03:00:14;;;;;;;13.23;8.00;;;2.60;99.90;;;;;;5034488;28;20579;-86
2022/12/08 03:03:06;;;;;;;15.57;8.10;;;2.60;99.90;;;;;;5028140;28;20182;-86
2022/12/08 03:05:44;;;;;;;15.90;7.30;;;2.70;99.90;;;;;;5025763;28;20170;-86
2022/12/08 03:08:18;;;;;;;11.43;8.07;;;2.60;99.90;;;;;;5013272;28;20248;-85
2022/12/08 03:10:55;;;;;;;10.53;7.73;;;2.60;99.90;;;;;;5017248;28;20160;-88
2022/12/08 03:13:31;;;;;;;12.73;7.83;;;2.60;99.90;;;;;;5014999;28;20178;-87
2022/12/08 03:15:58;;;;;;;12.20;7.73;;;2.60;99.90;;;;;;5032969;28;20197;-85
2022/12/08 03:18:30;;;;;;;10.20;7.30;;;2.60;99.90;;;;;;5015400;28;20205;-87
2022/12/08 03:20:55;;;;;;;12.50;7.70;;;2.60;99.90;;;;;;4998389;28;20183;-86
2022/12/08 03:23:25;;;;;;;13.17;7.93;;;2.60;99.90;;;;;;5017190;28;20174;-87
2022/12/08 03:25:59;;;;;;;16.50;8.00;;;2.60;99.90;;;;;;5018919;28;20197;-88
2022/12/08 03:28:25;;;;;;;13.33;7.90;;;2.60;99.90;;;;;;5019922;28;20237;-87
2022/12/08 03:30:55;;;;;;;12.17;7.73;;;2.60;99.90;;;;;;4998062;28;20175;-87
2022/12/08 03:33:27;;;;;;;11.47;7.43;;;2.60;99.90;;;;;;5001919;28;20174;-88
2022/12/08 03:35:54;;;;;;;14.10;7.47;;;2.60;99.90;;;;;;4997802;28;20261;-87
2022/12/08 03:38:21;;;;;;;20.37;8.20;;;2.60;99.90;;;;;;5034150;28;20188;-95
2022/12/08 03:41:28;;;;;;;11.40;8.23;;;2.60;99.90;;;;;;5010948;28;20179;-88
2022/12/08 03:43:54;;;;;;;19.93;8.57;;;2.60;99.90;;;;;;5004086;28;20218;-88
2022/12/08 03:46:22;;;;;;;14.90;7.97;;;2.60;99.90;;;;;;5017143;28;20536;-89
2022/12/08 03:48:48;;;;;;;13.80;7.90;;;2.60;99.90;;;;;;5034956;28;20181;-87
2022/12/08 03:51:14;;;;;;;20.20;8.30;;;2.50;99.90;;;;;;5034731;28;20258;-88
2022/12/08 03:53:40;;;;;;;14.13;8.30;;;2.50;99.90;;;;;;5017010;28;20193;-88
2022/12/08 03:56:15;;;;;;;15.43;8.23;;;2.40;99.90;;;;;;5012922;28;20185;-92
2022/12/08 03:58:42;;;;;;;12.57;7.83;;;2.40;99.90;;;;;;5017194;28;20181;-89
2022/12/08 04:01:07;;;;;;;10.73;8.00;;;2.40;99.90;;;;;;5017088;28;20217;-88
2022/12/08 04:03:34;;;;;;;12.23;8.13;;;2.40;99.90;;;;;;5023491;28;20186;-91
2022/12/08 04:06:00;;;;;;;19.00;8.23;;;2.40;99.90;;;;;;5029077;28;20226;-88
2022/12/08 04:08:26;;;;;;;12.00;7.90;;;2.30;99.90;;;;;;5034371;28;20625;-87
2022/12/08 04:10:51;;;;;;;14.40;8.50;;;2.30;99.90;;;;;;5015738;28;20582;-94
2022/12/08 04:13:17;;;;;;;12.17;8.73;;;2.30;99.90;;;;;;5017285;28;20916;-87
2022/12/08 04:15:47;;;;;;;14.73;7.93;;;2.40;99.90;;;;;;5040025;28;20253;-89
2022/12/08 04:18:14;;;;;;;12.33;8.37;;;2.40;99.90;;;;;;5043349;28;20178;-90
2022/12/08 04:20:41;;;;;;;15.50;7.60;;;2.40;99.90;;;;;;5032193;28;20217;-90
2022/12/08 04:23:08;;;;;;;14.03;8.50;;;2.40;99.90;;;;;;5016601;28;20182;-87
2022/12/08 04:25:36;;;;;;;13.43;8.63;;;2.40;99.90;;;;;;5016024;28;20316;-87
2022/12/08 04:28:02;;;;;;;14.43;8.40;;;2.40;99.90;;;;;;5016920;28;20580;-86
2022/12/08 04:30:28;;;;;;;14.87;7.67;;;2.40;99.90;;;;;;5016293;28;20186;-87
2022/12/08 04:32:54;;;;;;;10.27;7.47;;;2.30;99.90;;;;;;5038141;28;20240;-88
2022/12/08 04:35:20;;;;;;;13.30;7.97;;;2.30;99.90;;;;;;5020389;28;20262;-88
2022/12/08 04:37:46;;;;;;;13.27;8.23;;;2.20;99.90;;;;;;5038484;28;20253;-87
2022/12/08 04:40:12;;;;;;;13.03;7.40;;;2.20;99.90;;;;;;5038042;28;20179;-91
2022/12/08 04:42:38;;;;;;;12.40;7.90;;;2.20;99.90;;;;;;5036569;28;20234;-89
2022/12/08 04:45:05;;;;;;;12.03;7.60;;;2.20;99.90;;;;;;5032155;28;20193;-89
2022/12/08 04:47:30;;;;;;;11.83;7.63;;;2.20;99.90;;;;;;5038243;28;20229;-87
2022/12/08 04:49:56;;;;;;;14.17;7.60;;;2.20;99.90;;;;;;5020340;28;20636;-88
2022/12/08 04:52:22;;;;;;;13.93;8.03;;;2.20;99.90;;;;;;5020766;28;20179;-87
2022/12/08 04:54:48;;;;;;;11.93;7.80;;;2.20;99.90;;;;;;5020056;28;20181;-92
2022/12/08 04:57:14;;;;;;;18.80;8.57;;;2.10;99.90;;;;;;5016218;28;20642;-88
2022/12/08 04:59:40;;;;;;;11.60;7.27;;;2.20;99.90;;;;;;5018311;28;20230;-90
2022/12/08 05:02:06;;;;;;;14.60;7.93;;;2.20;99.90;;;;;;5001744;28;20183;-87
2022/12/08 05:04:34;;;;;;;13.30;8.23;;;2.20;99.90;;;;;;5040333;28;20553;-89
2022/12/08 05:06:59;;;;;;;14.80;7.77;;;2.20;99.90;;;;;;5040016;28;20259;-94
2022/12/08 05:09:25;;;;;;;15.53;8.73;;;2.20;99.90;;;;;;5040364;28;20268;-94
2022/12/08 05:11:51;;;;;;;14.33;8.57;;;2.20;99.90;;;;;;5037029;28;20182;-89
2022/12/08 05:14:18;;;;;;;17.57;8.83;;;2.30;99.90;;;;;;5021215;28;20195;-90
2022/12/08 05:16:44;;;;;;;16.47;8.50;;;2.30;99.90;;;;;;5055740;28;20185;-93
2022/12/08 05:19:10;;;;;;;15.57;8.53;;;2.30;99.90;;;;;;5023973;28;20183;-89
2022/12/08 05:21:36;;;;;;;14.57;8.23;;;2.30;99.90;;;;;;5038746;28;20556;-94
2022/12/08 05:24:02;;;;;;;11.20;7.60;;;2.30;99.90;;;;;;5020370;28;20183;-91
2022/12/08 05:26:27;;;;;;;16.97;8.33;;;2.30;99.90;;;;;;5020485;28;20198;-92
2022/12/08 05:28:53;;;;;;;16.87;8.07;;;2.30;99.90;;;;;;5019861;28;20621;-90
2022/12/08 05:31:19;;;;;;;12.37;8.27;;;2.30;99.90;;;;;;5035507;28;20184;-89
2022/12/08 05:33:45;;;;;;;13.50;8.47;;;2.30;99.90;;;;;;5020456;28;20193;-89
2022/12/08 05:36:12;;;;;;;17.77;8.33;;;2.30;99.90;;;;;;5020598;28;20179;-89
2022/12/08 05:38:39;;;;;;;17.83;7.63;;;2.30;99.90;;;;;;5021811;28;20652;-88
2022/12/08 05:41:10;;;;;;;15.23;7.80;;;2.30;99.90;;;;;;5037487;28;20226;-92
2022/12/08 05:43:35;;;;;;;14.90;7.93;;;2.30;99.90;;;;;;5016168;28;20676;-89
2022/12/08 05:46:07;;;;;;;15.43;8.03;;;2.30;99.90;;;;;;5003594;28;20206;-91
2022/12/08 05:48:33;;;;;;;13.17;7.77;;;2.30;99.90;;;;;;5025671;28;20186;-94
2022/12/08 05:51:00;;;;;;;17.00;8.43;;;2.30;99.90;;;;;;5042665;28;20183;-88
2022/12/08 05:53:26;;;;;;;18.00;8.80;;;2.30;99.90;;;;;;5035693;28;20640;-88
2022/12/08 05:55:56;;;;;;;14.57;8.27;;;2.30;99.90;;;;;;5014574;28;20237;-88
2022/12/08 05:58:22;;;;;;;13.70;8.03;;;2.30;99.90;;;;;;5019401;28;20193;-89
2022/12/08 06:00:49;;;;;;;12.40;8.20;;;2.30;99.90;;;;;;5019438;28;20628;-89
2022/12/08 06:03:16;;;;;;;15.17;8.33;;;2.30;99.90;;;;;;5018949;28;20182;-90
2022/12/08 06:05:45;;;;;;;16.80;8.20;;;2.30;99.90;;;;;;5036858;28;20178;-88
2022/12/08 06:08:12;;;;;;;15.17;8.80;;;2.30;99.90;;;;;;5035877;28;20237;-87
2022/12/08 06:10:42;;;;;;;15.77;8.47;;;2.30;99.90;;;;;;5039210;28;20201;-93
2022/12/08 06:13:08;;;;;;;17.17;8.20;;;2.30;99.90;;;;;;5037263;28;20182;-92
2022/12/08 06:15:37;;;;;;;18.13;9.27;;;2.30;99.90;;;;;;5039221;28;20178;-90
2022/12/08 06:18:04;;;;;;;15.23;8.57;;;2.30;99.90;;;;;;5021827;28;20175;-89
2022/12/08 06:20:30;;;;;;;14.60;9.03;;;2.40;99.90;;;;;;5019315;28;20612;-93
2022/12/08 06:22:56;;;;;;;18.87;8.27;;;2.40;99.90;;;;;;5037497;28;20213;-90
2022/12/08 06:25:36;;;;;;;12.37;8.60;;;2.30;99.90;;;;;;5019676;28;20178;-90
2022/12/08 06:28:04;;;;;;;13.40;8.87;;;2.40;99.90;;;;;;5031930;28;20267;-89
2022/12/08 06:30:30;;;;;;;15.40;8.87;;;2.40;99.90;;;;;;5019186;28;20190;-92
2022/12/08 06:32:56;;;;;;;17.23;9.47;;;2.40;99.90;;;;;;5037199;28;20186;-93
2022/12/08 06:35:22;;;;;;;15.17;10.17;;;2.40;99.90;;;;;;5019042;28;20232;-92
2022/12/08 06:37:48;;;;;;;16.43;9.50;;;2.40;99.90;;;;;;5087026;22;22216;-95
2022/12/08 06:40:13;;;;;;;17.87;10.33;;;2.50;99.90;;;;;;5085158;28;20279;-93
2022/12/08 06:42:48;;;;;;;17.60;9.57;;;2.50;99.90;;;;;;5095526;28;20267;-93
2022/12/08 06:45:16;;;;;;;19.67;10.30;;;2.50;99.90;;;;;;5096531;28;20168;-89
2022/12/08 06:47:42;;;;;;;21.67;10.63;;;2.60;99.90;;;;;;5096037;28;20209;-95
2022/12/08 06:50:09;;;;;;;17.83;11.20;;;2.60;99.90;;;;;;5096897;28;20234;-91
2022/12/08 06:52:35;;;;;;;18.87;11.03;;;2.60;99.90;;;;;;5096035;28;20186;-93
2022/12/08 06:55:01;;;;;;;26.27;11.33;;;2.60;99.90;;;;;;5097152;28;20248;-94
2022/12/08 06:57:27;;;;;;;17.47;11.13;;;2.60;99.90;;;;;;5082255;28;20176;-93
2022/12/08 07:00:04;;;;;;;17.80;11.23;;;2.60;99.90;;;;;;5096977;28;20176;-93
2022/12/08 07:02:30;;;;;;;18.10;10.70;;;2.60;99.90;;;;;;5095807;28;20180;-92
2022/12/08 07:04:56;;;;;;;20.40;11.70;;;2.60;99.90;;;;;;5094558;28;20207;-92
2022/12/08 07:07:22;;;;;;;18.97;11.97;;;2.70;99.90;;;;;;5096380;28;20642;-89
2022/12/08 07:09:47;;;;;;;20.00;12.90;;;2.60;99.90;;;;;;5095291;28;20255;-88
2022/12/08 07:12:15;;;;;;;19.60;11.77;;;2.70;99.90;;;;;;5094880;28;20276;-95
2022/12/08 07:14:41;;;;;;;24.70;13.17;;;2.60;99.90;;;;;;5094880;28;20257;-93
2022/12/08 07:17:07;;;;;;;25.70;12.70;;;2.70;99.90;;;;;;5093567;28;20607;-89
2022/12/08 07:19:33;;;;;;;21.63;11.80;;;2.70;99.90;;;;;;5093218;28;20177;-89
2022/12/08 07:21:58;;;;;;;20.10;12.57;;;2.70;99.90;;;;;;5093608;28;20179;-89
2022/12/08 07:24:24;;;;;;;19.50;13.00;;;2.70;99.90;;;;;;5093043;28;20184;-90
2022/12/08 07:26:50;;;;;;;20.93;12.77;;;2.70;99.90;;;;;;5094984;28;20631;-96
2022/12/08 07:29:15;;;;;;;24.00;12.37;;;2.70;99.90;;;;;;5093882;28;20180;-89
2022/12/08 07:31:41;;;;;;;24.73;12.83;;;2.70;99.90;;;;;;5094359;28;20191;-95
2022/12/08 07:34:07;;;;;;;21.30;13.33;;;2.80;99.90;;;;;;5093630;28;20222;-95
2022/12/08 07:36:33;;;;;;;24.23;13.00;;;2.80;99.90;;;;;;5091852;28;20183;-92
2022/12/08 07:38:59;;;;;;;19.90;12.60;;;2.80;99.90;;;;;;5094585;28;20224;-89
2022/12/08 07:41:25;;;;;;;19.33;12.13;;;2.80;99.90;;;;;;5093222;28;20176;-92
2022/12/08 07:43:55;;;;;;;20.63;11.53;;;2.80;99.90;;;;;;5093416;28;20264;-96
2022/12/08 07:46:23;;;;;;;17.47;11.20;;;2.80;99.90;;;;;;5090192;28;20638;-90
2022/12/08 07:48:48;;;;;;;17.60;11.77;;;2.80;99.90;;;;;;5094373;28;20267;-88
2022/12/08 07:51:16;;;;;;;20.07;11.37;;;2.80;99.90;;;;;;5092470;28;20264;-88
2022/12/08 07:53:44;;;;;;;16.50;10.10;;;2.80;99.90;;;;;;5094089;28;20191;-94
2022/12/08 07:56:11;;;;;;;16.47;10.50;;;2.80;99.90;;;;;;5088487;28;20180;-93
2022/12/08 07:58:37;;;;;;;18.10;10.17;;;2.80;99.90;;;;;;5092387;28;20180;-88
2022/12/08 08:01:05;;;;;;;20.13;10.70;;;2.90;99.90;;;;;;5093204;28;20247;-92
2022/12/08 08:03:31;;;;;;;17.50;10.23;;;2.90;99.90;;;;;;5093244;28;20325;-87
2022/12/08 08:06:03;;;;;;;16.83;11.13;;;2.80;99.90;;;;;;5094175;28;20259;-88
2022/12/08 08:08:29;;;;;;;16.40;10.50;;;2.80;99.90;;;;;;5093026;28;20192;-91
2022/12/08 08:10:55;;;;;;;16.43;9.80;;;2.80;99.90;;;;;;5094551;28;20281;-90
2022/12/08 08:13:21;;;;;;;16.03;10.37;;;2.80;99.90;;;;;;5093407;28;20260;-88
2022/12/08 08:15:46;;;;;;;16.50;10.63;;;2.80;99.90;;;;;;5094630;28;20317;-92
2022/12/08 08:18:12;;;;;;;17.13;11.17;;;2.80;99.90;;;;;;5093846;28;20624;-91
2022/12/08 08:20:38;;;;;;;15.23;10.87;;;2.80;99.90;;;;;;5094576;28;20198;-92
2022/12/08 08:23:04;;;;;;;17.47;11.43;;;2.80;99.90;;;;;;5093185;28;20595;-88
2022/12/08 08:25:30;;;;;;;18.77;12.07;;;2.80;99.90;;;;;;5094460;28;20180;-88
2022/12/08 08:27:55;;;;;;;16.40;10.80;;;2.80;99.90;;;;;;5092694;28;20216;-90
2022/12/08 08:30:21;;;;;;;21.27;12.70;;;2.80;99.90;;;;;;5093574;28;20176;-91
2022/12/08 08:32:48;;;;;;;21.43;12.43;;;2.80;99.90;;;;;;5093619;28;20487;-87
2022/12/08 08:35:14;;;;;;;19.43;12.53;;;2.70;99.90;;;;;;5093524;28;20169;-87
2022/12/08 08:37:40;;;;;;;19.30;12.33;;;2.70;99.90;;;;;;5092634;28;20180;-92
2022/12/08 08:40:06;;;;;;;18.60;12.43;;;2.70;99.90;;;;;;5093971;28;20185;-87
2022/12/08 08:42:32;;;;;;;18.20;11.80;;;2.60;99.90;;;;;;5092663;28;20168;-86
2022/12/08 08:44:57;;;;;;;18.40;11.77;;;2.60;99.90;;;;;;5092845;28;20226;-87
2022/12/08 08:47:23;;;;;;;20.53;11.57;;;2.60;99.90;;;;;;5092583;28;20212;-86
2022/12/08 08:49:49;;;;;;;20.50;11.73;;;2.50;99.90;;;;;;5093765;28;20175;-86
2022/12/08 08:52:15;;;;;;;21.00;11.87;;;2.40;99.90;;;;;;5092478;28;20215;-85
2022/12/08 08:54:40;;;;;;;19.73;12.83;;;2.40;99.90;;;;;;5093299;28;20200;-86
2022/12/08 08:57:07;;;;;;;21.73;13.20;;;2.40;99.90;;;;;;5092197;28;20672;-85
2022/12/08 08:59:33;;;;;;;20.83;12.60;;;2.40;99.90;;;;;;5093471;28;20511;-86
2022/12/08 09:01:59;;;;;;;20.53;12.27;;;2.40;99.90;;;;;;5092165;28;20184;-85
2022/12/08 09:04:24;;;;;;;18.47;12.37;;;2.40;99.90;;;;;;5092153;28;20241;-87
2022/12/08 09:06:50;;;;;;;20.50;12.13;;;2.40;99.90;;;;;;5092989;28;20246;-87
2022/12/08 09:09:16;;;;;;;20.07;12.70;;;2.40;99.90;;;;;;5091764;28;20184;-85
2022/12/08 09:11:43;;;;;;;18.10;12.30;;;2.40;99.90;;;;;;5093453;28;20505;-85
2022/12/08 09:14:16;;;;;;;18.97;11.93;;;2.40;99.90;;;;;;5092027;28;20634;-85
2022/12/08 09:16:42;;;;;;;20.17;13.13;;;2.40;99.90;;;;;;5092697;28;20221;-86
2022/12/08 09:19:07;;;;;;;21.20;12.83;;;2.40;99.90;;;;;;5094255;28;20260;-86
2022/12/08 09:21:33;;;;;;;20.97;13.13;;;2.40;99.90;;;;;;5097022;28;20179;-85
2022/12/08 09:23:59;;;;;;;19.63;12.63;;;2.40;99.90;;;;;;5096693;28;20165;-86
2022/12/08 09:26:26;;;;;;;20.10;12.57;;;2.40;99.90;;;;;;5095562;28;20291;-85
2022/12/08 09:28:54;;;;;;;18.13;11.97;;;2.40;99.90;;;;;;5095532;28;20511;-86
2022/12/08 09:31:21;;;;;;;20.70;13.20;;;2.40;99.90;;;;;;5095571;28;20723;-85
2022/12/08 09:33:47;;;;;;;19.50;12.83;;;2.50;99.90;;;;;;5095427;28;20169;-85
2022/12/08 09:36:13;;;;;;;18.17;12.67;;;2.50;99.90;;;;;;5096710;28;20668;-85
2022/12/08 09:38:40;;;;;;;19.33;12.43;;;2.50;99.90;;;;;;5096208;28;20216;-84
2022/12/08 09:41:22;;;;;;;21.00;13.43;;;2.50;99.90;;;;;;5096650;28;20184;-85
2022/12/08 09:44:04;;;;;;;18.47;13.63;;;2.50;99.90;;;;;;5095303;28;20171;-85
2022/12/08 09:46:32;;;;;;;21.83;12.37;;;2.50;99.90;;;;;;5096661;28;20199;-86
2022/12/08 09:48:59;;;;;;;19.60;13.10;;;2.50;99.90;;;;;;5095000;28;20219;-85
2022/12/08 09:51:40;;;;;;;22.33;13.80;;;2.60;99.90;;;;;;5095289;28;20203;-88
2022/12/08 09:54:23;;;;;;;19.40;13.23;;;2.60;99.90;;;;;;5094946;28;20172;-86
2022/12/08 09:56:53;;;;;;;21.27;13.20;;;2.60;99.90;;;;;;5095102;28;20511;-85
2022/12/08 09:59:28;;;;;;;20.37;13.60;;;2.60;99.90;;;;;;5094854;28;20183;-85
2022/12/08 10:01:54;;;;;;;21.63;13.33;;;2.60;99.90;;;;;;5096364;28;20198;-85
2022/12/08 10:04:24;;;;;;;24.80;14.17;;;2.70;99.90;;;;;;5096023;28;20256;-85
2022/12/08 10:07:23;;;;;;;22.07;13.97;;;2.70;99.90;;;;;;5094938;28;20211;-86
2022/12/08 10:10:06;;;;;;;22.77;14.57;;;2.80;99.90;;;;;;5094761;28;20255;-86
2022/12/08 10:12:59;;;;;;;22.57;13.60;;;2.80;99.90;;;;;;5094934;28;20200;-86
2022/12/08 10:15:39;;;;;;;23.60;14.53;;;2.90;99.90;;;;;;5096006;28;20164;-85
2022/12/08 10:18:23;;;;;;;21.37;13.30;;;2.90;99.90;;;;;;5096084;28;20173;-86
2022/12/08 10:20:50;;;;;;;21.67;13.50;;;2.90;99.90;;;;;;5096068;28;20190;-86
2022/12/08 10:23:35;;;;;;;19.10;13.43;;;3.00;99.90;;;;;;5095675;28;20164;-86
2022/12/08 10:26:10;;;;;;;19.40;12.90;;;3.00;99.90;;;;;;5094732;28;20210;-86
2022/12/08 10:28:35;;;;;;;19.57;13.10;;;3.00;99.90;;;;;;5095510;28;20194;-86
2022/12/08 10:31:01;;;;;;;18.03;12.00;;;3.10;99.90;;;;;;5094189;28;20235;-85
2022/12/08 10:33:29;;;;;;;19.63;13.17;;;3.10;99.90;;;;;;5094688;28;20271;-86
2022/12/08 10:35:59;;;;;;;17.77;12.30;;;3.20;99.90;;;;;;5094510;28;20519;-88
2022/12/08 10:38:33;;;;;;;17.47;11.17;;;3.20;99.90;;;;;;5093772;28;20681;-86
2022/12/08 10:41:19;;;;;;;15.97;11.27;;;3.10;99.90;;;;;;5095634;28;20176;-91
2022/12/08 10:43:59;;;;;;;16.27;11.50;;;3.10;99.90;;;;;;5093648;28;20638;-87
2022/12/08 10:46:27;;;;;;;18.90;10.97;;;3.20;99.90;;;;;;5094524;28;20231;-85
2022/12/08 10:49:08;;;;;;;16.17;10.60;;;3.20;99.90;;;;;;5095720;28;20173;-85
2022/12/08 10:51:36;;;;;;;15.23;10.30;;;3.30;99.90;;;;;;5094089;28;20176;-86
2022/12/08 10:54:04;;;;;;;15.00;10.83;;;3.20;99.90;;;;;;5095686;28;20164;-87
2022/12/08 10:56:32;;;;;;;16.30;10.20;;;3.30;99.90;;;;;;5094389;28;20687;-86
2022/12/08 10:59:17;;;;;;;14.93;10.20;;;3.30;99.90;;;;;;5093928;28;20204;-87
2022/12/08 11:01:48;;;;;;;15.00;9.73;;;3.40;99.90;;;;;;5094205;28;20614;-85
2022/12/08 11:04:22;;;;;;;14.50;10.07;;;3.40;99.90;;;;;;5094235;28;20503;-86
2022/12/08 11:06:50;;;;;;;12.90;9.23;;;3.40;99.90;;;;;;5094285;28;20682;-86
2022/12/08 11:09:19;;;;;;;15.47;10.13;;;3.40;99.90;;;;;;5094040;28;20525;-86
2022/12/08 11:11:46;;;;;;;11.83;8.70;;;3.50;99.90;;;;;;5095159;28;20173;-85
2022/12/08 11:14:21;;;;;;;13.00;8.77;;;3.50;99.90;;;;;;5093846;28;20181;-87
2022/12/08 11:16:49;;;;;;;11.40;8.20;;;3.50;99.90;;;;;;5093869;28;20275;-85
2022/12/08 11:19:17;;;;;;;10.70;8.00;;;3.50;99.90;;;;;;5093783;28;20181;-86
2022/12/08 11:21:44;;;;;;;12.67;8.50;;;3.50;99.90;;;;;;5093602;28;20504;-85
2022/12/08 11:24:26;;;;;;;10.43;7.30;;;3.60;99.90;;;;;;5093328;28;20175;-87
2022/12/08 11:26:56;;;;;;;9.07;6.80;;;3.60;99.90;;;;;;5093527;28;20290;-86
2022/12/08 11:29:22;;;;;;;8.13;6.37;;;3.50;99.90;;;;;;5094811;28;20169;-86
2022/12/08 11:32:12;;;;;;;11.20;6.63;;;3.60;99.90;;;;;;5094674;28;20183;-87
2022/12/08 11:34:50;;;;;;;8.70;6.03;;;3.50;99.90;;;;;;5083228;28;20185;-87
2022/12/08 11:37:37;;;;;;;9.50;7.07;;;3.50;99.90;;;;;;5094591;28;20230;-87
2022/12/08 11:40:24;;;;;;;10.53;7.57;;;3.60;99.90;;;;;;5092607;28;20527;-87
2022/12/08 11:43:16;;;;;;;11.23;7.60;;;3.60;99.90;;;;;;5072536;28;20173;-86
2022/12/08 11:45:43;;;;;;;12.60;8.30;;;3.60;99.90;;;;;;5072897;28;20218;-86
2022/12/08 11:48:13;;;;;;;11.67;8.20;;;3.60;99.90;;;;;;5089927;28;20303;-86
2022/12/08 11:50:48;;;;;;;11.37;7.83;;;3.60;99.90;;;;;;5072896;28;20169;-86
2022/12/08 11:53:31;;;;;;;10.70;7.93;;;3.60;99.90;;;;;;5073495;28;20446;-87
2022/12/08 11:56:02;;;;;;;11.50;8.27;;;3.60;99.90;;;;;;5072826;28;20173;-87
2022/12/08 11:58:39;;;;;;;13.10;8.23;;;3.60;99.90;;;;;;5072866;28;20174;-87
2022/12/08 12:01:21;;;;;;;12.23;8.40;;;3.60;99.90;;;;;;5074224;28;20173;-88
2022/12/08 12:03:59;;;;;;;12.83;8.07;;;3.60;99.90;;;;;;5072992;28;20197;-88
2022/12/08 12:06:43;;;;;;;15.70;9.10;;;3.60;99.90;;;;;;5074075;28;20226;-86
2022/12/08 12:09:09;;;;;;;14.97;8.70;;;3.60;99.90;;;;;;5072508;28;20256;-87
2022/12/08 12:14:49;;;;;;;13.30;8.20;;;3.60;99.90;;;;;;5074074;28;20176;-87
2022/12/08 12:17:46;;;;;;;14.07;8.50;;;3.60;99.90;;;;;;5073434;28;20193;-87
2022/12/08 12:20:23;;;;;;;13.83;8.33;;;3.60;99.90;;;;;;5046789;28;20180;-87
2022/12/08 12:22:59;;;;;;;14.47;8.47;;;3.60;99.90;;;;;;5072453;28;20173;-86
2022/12/08 12:25:26;;;;;;;12.53;8.27;;;3.60;99.90;;;;;;5072746;28;20227;-85
2022/12/08 12:27:58;;;;;;;12.10;7.93;;;3.60;99.90;;;;;;5072382;28;20624;-87
2022/12/08 12:30:32;;;;;;;11.47;7.27;;;3.60;99.90;;;;;;5072737;28;20180;-87
2022/12/08 12:33:00;;;;;;;10.60;7.07;;;3.60;99.90;;;;;;5072125;28;20176;-86
2022/12/08 12:35:37;;;;;;;11.80;7.80;;;3.60;99.90;;;;;;5072278;28;20259;-86
2022/12/08 12:41:11;;;;;;;10.30;7.37;;;3.60;99.90;;;;;;5073791;28;20181;-86
2022/12/08 12:43:38;;;;;;;10.73;7.10;;;3.50;99.90;;;;;;5073382;28;20181;-87
2022/12/08 12:46:36;;;;;;;9.47;7.30;;;3.60;99.90;;;;;;5072448;28;20177;-87
2022/12/08 12:49:39;;;;;;;9.03;6.80;;;3.50;99.90;;;;;;5041310;28;20227;-86
2022/12/08 12:52:30;;;;;;;11.70;6.40;;;3.50;99.90;;;;;;5085911;28;20176;-86
2022/12/08 12:54:55;;;;;;;9.73;7.00;;;3.50;99.90;;;;;;5095837;28;20188;-86
2022/12/08 12:57:32;;;;;;;10.30;6.80;;;3.50;99.90;;;;;;5095236;28;20283;-86
2022/12/08 13:00:00;;;;;;;10.97;7.30;;;3.50;99.90;;;;;;5095935;28;20194;-86
2022/12/08 13:02:30;;;;;;;9.13;7.30;;;3.50;99.90;;;;;;5096720;28;20173;-86
2022/12/08 13:05:08;;;;;;;10.57;7.10;;;3.50;99.90;;;;;;5095795;28;20256;-87
2022/12/08 13:08:02;;;;;;;11.07;7.93;;;3.50;99.90;;;;;;5096012;28;20204;-86
2022/12/08 13:10:39;;;;;;;10.53;6.87;;;3.50;99.90;;;;;;5096029;28;20172;-86